Terminal Aerodrome Forecast
Issued by NWS

Home | Current Version | Previous Version | Text Only | Print | Product List | Glossary On
Versions: 1 2 3 4 5 6 7 8 9 10 11 12 13 14 15 16
000
FTUS44 KLIX 280520
TAFHUM
TAF
KHUM 280520Z 2806/2906 15008KT P6SM BKN020
     FM280700 15008KT 6SM BR BKN008
     FM281400 17015KT P6SM BKN010
     FM281700 17017KT P6SM BKN015
     FM282100 17017KT P6SM BKN020
     FM282300 16016KT P6SM OVC015=

USA.gov is the U.S. government's official web portal to all federal, state and local government web resources and services.